sensor_id;sensor_type;location;lat;lon;timestamp;P1;durP1;ratioP1;P2;durP2;ratioP2
6259;SDS011;3163;51.516;4.000;2023-04-24T00:01:23;2.53;;;0.80;;
6259;SDS011;3163;51.516;4.000;2023-04-24T00:03:49;0.77;;;0.77;;
6259;SDS011;3163;51.516;4.000;2023-04-24T00:06:15;0.70;;;0.70;;
6259;SDS011;3163;51.516;4.000;2023-04-24T00:08:41;1.53;;;0.60;;
6259;SDS011;3163;51.516;4.000;2023-04-24T00:11:07;1.03;;;0.70;;
6259;SDS011;3163;51.516;4.000;2023-04-24T00:13:34;1.43;;;0.60;;
6259;SDS011;3163;51.516;4.000;2023-04-24T00:16:00;1.20;;;1.03;;
6259;SDS011;3163;51.516;4.000;2023-04-24T00:18:25;0.83;;;0.83;;
6259;SDS011;3163;51.516;4.000;2023-04-24T00:20:51;1.37;;;1.00;;
6259;SDS011;3163;51.516;4.000;2023-04-24T00:23:17;1.43;;;0.90;;
6259;SDS011;3163;51.516;4.000;2023-04-24T00:25:43;2.30;;;0.87;;
6259;SDS011;3163;51.516;4.000;2023-04-24T00:28:08;1.83;;;1.03;;
6259;SDS011;3163;51.516;4.000;2023-04-24T00:30:34;0.77;;;0.57;;
6259;SDS011;3163;51.516;4.000;2023-04-24T00:32:59;0.70;;;0.70;;
6259;SDS011;3163;51.516;4.000;2023-04-24T00:35:25;0.83;;;0.67;;
6259;SDS011;3163;51.516;4.000;2023-04-24T00:37:50;2.20;;;1.10;;
6259;SDS011;3163;51.516;4.000;2023-04-24T00:40:16;2.37;;;1.10;;
6259;SDS011;3163;51.516;4.000;2023-04-24T00:42:43;0.57;;;0.57;;
6259;SDS011;3163;51.516;4.000;2023-04-24T00:45:09;5.07;;;1.07;;
6259;SDS011;3163;51.516;4.000;2023-04-24T00:47:36;1.27;;;0.80;;
6259;SDS011;3163;51.516;4.000;2023-04-24T00:50:02;2.87;;;0.73;;
6259;SDS011;3163;51.516;4.000;2023-04-24T00:52:28;1.20;;;1.03;;
6259;SDS011;3163;51.516;4.000;2023-04-24T00:54:56;0.70;;;0.70;;
6259;SDS011;3163;51.516;4.000;2023-04-24T00:57:21;1.03;;;0.97;;
6259;SDS011;3163;51.516;4.000;2023-04-24T00:59:48;0.77;;;0.77;;
6259;SDS011;3163;51.516;4.000;2023-04-24T01:02:14;1.00;;;0.73;;
6259;SDS011;3163;51.516;4.000;2023-04-24T01:04:40;0.70;;;0.63;;
6259;SDS011;3163;51.516;4.000;2023-04-24T01:07:06;1.02;;;0.93;;
6259;SDS011;3163;51.516;4.000;2023-04-24T01:09:35;2.07;;;0.90;;
6259;SDS011;3163;51.516;4.000;2023-04-24T01:12:06;0.47;;;0.47;;
6259;SDS011;3163;51.516;4.000;2023-04-24T01:14:32;1.25;;;0.80;;
6259;SDS011;3163;51.516;4.000;2023-04-24T01:16:58;0.53;;;0.53;;
6259;SDS011;3163;51.516;4.000;2023-04-24T01:19:24;2.03;;;1.10;;
6259;SDS011;3163;51.516;4.000;2023-04-24T01:21:50;2.53;;;1.10;;
6259;SDS011;3163;51.516;4.000;2023-04-24T01:24:19;1.77;;;0.67;;
6259;SDS011;3163;51.516;4.000;2023-04-24T01:26:44;1.60;;;0.70;;
6259;SDS011;3163;51.516;4.000;2023-04-24T01:29:11;0.93;;;0.93;;
6259;SDS011;3163;51.516;4.000;2023-04-24T01:31:37;0.50;;;0.50;;
6259;SDS011;3163;51.516;4.000;2023-04-24T01:34:04;0.67;;;0.60;;
6259;SDS011;3163;51.516;4.000;2023-04-24T01:36:30;0.93;;;0.80;;
6259;SDS011;3163;51.516;4.000;2023-04-24T01:38:58;0.73;;;0.63;;
6259;SDS011;3163;51.516;4.000;2023-04-24T01:41:23;1.50;;;0.80;;
6259;SDS011;3163;51.516;4.000;2023-04-24T01:43:50;2.20;;;0.80;;
6259;SDS011;3163;51.516;4.000;2023-04-24T01:46:16;0.87;;;0.83;;
6259;SDS011;3163;51.516;4.000;2023-04-24T01:48:41;2.10;;;0.97;;
6259;SDS011;3163;51.516;4.000;2023-04-24T01:51:07;4.53;;;0.80;;
6259;SDS011;3163;51.516;4.000;2023-04-24T01:53:33;0.57;;;0.53;;
6259;SDS011;3163;51.516;4.000;2023-04-24T01:55:59;2.57;;;0.60;;
6259;SDS011;3163;51.516;4.000;2023-04-24T01:58:26;1.03;;;0.77;;
6259;SDS011;3163;51.516;4.000;2023-04-24T02:00:52;2.57;;;1.10;;
6259;SDS011;3163;51.516;4.000;2023-04-24T02:03:17;0.50;;;0.50;;
6259;SDS011;3163;51.516;4.000;2023-04-24T02:05:43;0.70;;;0.70;;
6259;SDS011;3163;51.516;4.000;2023-04-24T02:08:10;1.15;;;0.80;;
6259;SDS011;3163;51.516;4.000;2023-04-24T02:10:35;0.77;;;0.60;;
6259;SDS011;3163;51.516;4.000;2023-04-24T02:13:01;0.60;;;0.60;;
6259;SDS011;3163;51.516;4.000;2023-04-24T02:15:27;1.53;;;0.60;;
6259;SDS011;3163;51.516;4.000;2023-04-24T02:17:52;0.50;;;0.50;;
6259;SDS011;3163;51.516;4.000;2023-04-24T02:20:18;0.43;;;0.43;;
6259;SDS011;3163;51.516;4.000;2023-04-24T02:22:44;1.10;;;0.80;;
6259;SDS011;3163;51.516;4.000;2023-04-24T02:25:10;0.67;;;0.63;;
6259;SDS011;3163;51.516;4.000;2023-04-24T02:27:35;0.60;;;0.60;;
6259;SDS011;3163;51.516;4.000;2023-04-24T02:30:01;0.77;;;0.70;;
6259;SDS011;3163;51.516;4.000;2023-04-24T02:32:28;1.07;;;0.70;;
6259;SDS011;3163;51.516;4.000;2023-04-24T02:34:53;1.80;;;0.83;;
6259;SDS011;3163;51.516;4.000;2023-04-24T02:37:19;0.53;;;0.50;;
6259;SDS011;3163;51.516;4.000;2023-04-24T02:39:45;1.70;;;0.60;;
6259;SDS011;3163;51.516;4.000;2023-04-24T02:42:10;2.73;;;0.67;;
6259;SDS011;3163;51.516;4.000;2023-04-24T02:44:36;2.63;;;0.70;;
6259;SDS011;3163;51.516;4.000;2023-04-24T02:47:01;0.73;;;0.67;;
6259;SDS011;3163;51.516;4.000;2023-04-24T02:49:27;3.10;;;0.70;;
6259;SDS011;3163;51.516;4.000;2023-04-24T02:51:52;2.90;;;0.70;;
6259;SDS011;3163;51.516;4.000;2023-04-24T02:54:18;0.73;;;0.60;;
6259;SDS011;3163;51.516;4.000;2023-04-24T02:56:44;0.67;;;0.50;;
6259;SDS011;3163;51.516;4.000;2023-04-24T02:59:09;1.00;;;0.50;;
6259;SDS011;3163;51.516;4.000;2023-04-24T03:01:35;0.43;;;0.43;;
6259;SDS011;3163;51.516;4.000;2023-04-24T03:04:01;0.50;;;0.50;;
6259;SDS011;3163;51.516;4.000;2023-04-24T03:06:27;0.90;;;0.67;;
6259;SDS011;3163;51.516;4.000;2023-04-24T03:08:53;2.38;;;1.00;;
6259;SDS011;3163;51.516;4.000;2023-04-24T03:11:19;2.50;;;0.63;;
6259;SDS011;3163;51.516;4.000;2023-04-24T03:13:45;0.23;;;0.23;;
6259;SDS011;3163;51.516;4.000;2023-04-24T03:16:10;1.20;;;0.60;;
6259;SDS011;3163;51.516;4.000;2023-04-24T03:18:36;0.70;;;0.70;;
6259;SDS011;3163;51.516;4.000;2023-04-24T03:21:01;0.93;;;0.60;;
6259;SDS011;3163;51.516;4.000;2023-04-24T03:23:28;1.80;;;0.77;;
6259;SDS011;3163;51.516;4.000;2023-04-24T03:25:54;1.57;;;1.07;;
6259;SDS011;3163;51.516;4.000;2023-04-24T03:28:20;2.53;;;1.10;;
6259;SDS011;3163;51.516;4.000;2023-04-24T03:30:45;1.03;;;0.93;;
6259;SDS011;3163;51.516;4.000;2023-04-24T03:33:11;1.50;;;0.83;;
6259;SDS011;3163;51.516;4.000;2023-04-24T03:35:36;2.80;;;0.97;;
6259;SDS011;3163;51.516;4.000;2023-04-24T03:38:02;1.80;;;1.00;;
6259;SDS011;3163;51.516;4.000;2023-04-24T03:40:29;1.60;;;0.87;;
6259;SDS011;3163;51.516;4.000;2023-04-24T03:42:55;0.83;;;0.67;;
6259;SDS011;3163;51.516;4.000;2023-04-24T03:45:21;1.90;;;0.80;;
6259;SDS011;3163;51.516;4.000;2023-04-24T03:47:46;1.50;;;0.93;;
6259;SDS011;3163;51.516;4.000;2023-04-24T03:50:12;1.40;;;0.83;;
6259;SDS011;3163;51.516;4.000;2023-04-24T03:52:37;2.63;;;0.97;;
6259;SDS011;3163;51.516;4.000;2023-04-24T03:55:03;3.57;;;1.07;;
6259;SDS011;3163;51.516;4.000;2023-04-24T03:57:29;1.17;;;0.97;;
6259;SDS011;3163;51.516;4.000;2023-04-24T03:59:55;1.70;;;0.70;;
6259;SDS011;3163;51.516;4.000;2023-04-24T04:02:20;0.63;;;0.63;;
6259;SDS011;3163;51.516;4.000;2023-04-24T04:04:46;2.43;;;1.00;;
6259;SDS011;3163;51.516;4.000;2023-04-24T04:07:11;3.93;;;1.50;;
6259;SDS011;3163;51.516;4.000;2023-04-24T04:09:37;0.98;;;0.90;;
6259;SDS011;3163;51.516;4.000;2023-04-24T04:12:03;1.23;;;0.87;;
6259;SDS011;3163;51.516;4.000;2023-04-24T04:14:29;3.87;;;1.27;;
6259;SDS011;3163;51.516;4.000;2023-04-24T04:16:54;3.90;;;1.27;;
6259;SDS011;3163;51.516;4.000;2023-04-24T04:19:20;1.27;;;0.80;;
6259;SDS011;3163;51.516;4.000;2023-04-24T04:21:46;3.57;;;0.93;;
6259;SDS011;3163;51.516;4.000;2023-04-24T04:24:15;1.53;;;0.73;;
6259;SDS011;3163;51.516;4.000;2023-04-24T04:26:41;0.87;;;0.87;;
6259;SDS011;3163;51.516;4.000;2023-04-24T04:29:11;1.23;;;1.13;;
6259;SDS011;3163;51.516;4.000;2023-04-24T04:31:37;1.07;;;0.93;;
6259;SDS011;3163;51.516;4.000;2023-04-24T04:34:02;1.70;;;1.30;;
6259;SDS011;3163;51.516;4.000;2023-04-24T04:36:28;1.83;;;1.30;;
6259;SDS011;3163;51.516;4.000;2023-04-24T04:38:54;1.13;;;1.03;;
6259;SDS011;3163;51.516;4.000;2023-04-24T04:41:20;1.63;;;1.33;;
6259;SDS011;3163;51.516;4.000;2023-04-24T04:43:45;3.00;;;1.47;;
6259;SDS011;3163;51.516;4.000;2023-04-24T04:46:12;3.87;;;1.97;;
6259;SDS011;3163;51.516;4.000;2023-04-24T04:48:38;2.10;;;1.33;;
6259;SDS011;3163;51.516;4.000;2023-04-24T04:51:04;3.13;;;1.80;;
6259;SDS011;3163;51.516;4.000;2023-04-24T04:53:30;1.43;;;1.17;;
6259;SDS011;3163;51.516;4.000;2023-04-24T04:55:56;7.60;;;2.17;;
6259;SDS011;3163;51.516;4.000;2023-04-24T04:58:21;2.57;;;0.90;;
6259;SDS011;3163;51.516;4.000;2023-04-24T05:00:47;4.27;;;3.10;;
6259;SDS011;3163;51.516;4.000;2023-04-24T05:03:13;1.20;;;1.10;;
6259;SDS011;3163;51.516;4.000;2023-04-24T05:05:39;2.83;;;1.30;;
6259;SDS011;3163;51.516;4.000;2023-04-24T05:08:06;5.70;;;2.00;;
6259;SDS011;3163;51.516;4.000;2023-04-24T05:10:32;5.50;;;1.97;;
6259;SDS011;3163;51.516;4.000;2023-04-24T05:12:58;3.13;;;2.23;;
6259;SDS011;3163;51.516;4.000;2023-04-24T05:15:23;2.30;;;1.30;;
6259;SDS011;3163;51.516;4.000;2023-04-24T05:17:49;2.30;;;1.90;;
6259;SDS011;3163;51.516;4.000;2023-04-24T05:20:15;1.87;;;1.10;;
6259;SDS011;3163;51.516;4.000;2023-04-24T05:22:40;2.03;;;1.80;;
6259;SDS011;3163;51.516;4.000;2023-04-24T05:25:06;1.90;;;1.70;;
6259;SDS011;3163;51.516;4.000;2023-04-24T05:27:32;2.97;;;1.13;;
6259;SDS011;3163;51.516;4.000;2023-04-24T05:29:58;3.87;;;1.57;;
6259;SDS011;3163;51.516;4.000;2023-04-24T05:32:24;5.70;;;1.63;;
6259;SDS011;3163;51.516;4.000;2023-04-24T05:34:50;8.03;;;2.63;;
6259;SDS011;3163;51.516;4.000;2023-04-24T05:37:16;3.20;;;2.07;;
6259;SDS011;3163;51.516;4.000;2023-04-24T05:39:41;1.43;;;1.00;;
6259;SDS011;3163;51.516;4.000;2023-04-24T05:42:07;1.10;;;1.00;;
6259;SDS011;3163;51.516;4.000;2023-04-24T05:44:33;1.10;;;1.00;;
6259;SDS011;3163;51.516;4.000;2023-04-24T05:46:58;3.23;;;1.63;;
6259;SDS011;3163;51.516;4.000;2023-04-24T05:49:24;2.70;;;1.87;;
6259;SDS011;3163;51.516;4.000;2023-04-24T05:51:50;3.13;;;1.63;;
6259;SDS011;3163;51.516;4.000;2023-04-24T05:54:15;4.47;;;1.47;;
6259;SDS011;3163;51.516;4.000;2023-04-24T05:56:41;3.77;;;1.57;;
6259;SDS011;3163;51.516;4.000;2023-04-24T05:59:07;2.30;;;1.60;;
6259;SDS011;3163;51.516;4.000;2023-04-24T06:01:33;5.10;;;1.43;;
6259;SDS011;3163;51.516;4.000;2023-04-24T06:03:59;6.73;;;2.30;;
6259;SDS011;3163;51.516;4.000;2023-04-24T06:06:24;4.70;;;1.87;;
6259;SDS011;3163;51.516;4.000;2023-04-24T06:08:50;2.63;;;1.40;;
6259;SDS011;3163;51.516;4.000;2023-04-24T06:11:16;2.87;;;1.83;;
6259;SDS011;3163;51.516;4.000;2023-04-24T06:13:42;4.60;;;1.67;;
6259;SDS011;3163;51.516;4.000;2023-04-24T06:16:07;5.03;;;2.50;;
6259;SDS011;3163;51.516;4.000;2023-04-24T06:18:33;2.20;;;1.57;;
6259;SDS011;3163;51.516;4.000;2023-04-24T06:20:59;5.87;;;1.63;;
6259;SDS011;3163;51.516;4.000;2023-04-24T06:23:24;5.07;;;2.33;;
6259;SDS011;3163;51.516;4.000;2023-04-24T06:25:50;2.47;;;1.53;;
6259;SDS011;3163;51.516;4.000;2023-04-24T06:28:16;5.07;;;1.70;;
6259;SDS011;3163;51.516;4.000;2023-04-24T06:30:42;3.80;;;1.87;;
6259;SDS011;3163;51.516;4.000;2023-04-24T06:33:08;5.63;;;1.90;;
6259;SDS011;3163;51.516;4.000;2023-04-24T06:35:35;5.90;;;1.33;;
6259;SDS011;3163;51.516;4.000;2023-04-24T06:38:01;1.23;;;0.97;;
6259;SDS011;3163;51.516;4.000;2023-04-24T06:40:26;3.93;;;1.27;;
6259;SDS011;3163;51.516;4.000;2023-04-24T06:42:52;1.63;;;1.53;;
6259;SDS011;3163;51.516;4.000;2023-04-24T06:45:18;1.13;;;0.67;;
6259;SDS011;3163;51.516;4.000;2023-04-24T06:47:43;1.63;;;0.80;;
6259;SDS011;3163;51.516;4.000;2023-04-24T06:50:09;3.73;;;1.40;;
6259;SDS011;3163;51.516;4.000;2023-04-24T06:52:36;2.37;;;1.63;;
6259;SDS011;3163;51.516;4.000;2023-04-24T06:55:02;5.37;;;1.80;;
6259;SDS011;3163;51.516;4.000;2023-04-24T06:57:28;1.27;;;1.10;;
6259;SDS011;3163;51.516;4.000;2023-04-24T06:59:54;3.90;;;1.80;;
6259;SDS011;3163;51.516;4.000;2023-04-24T07:02:20;7.33;;;1.87;;
6259;SDS011;3163;51.516;4.000;2023-04-24T07:04:45;2.00;;;1.03;;
6259;SDS011;3163;51.516;4.000;2023-04-24T07:07:12;0.70;;;0.60;;
6259;SDS011;3163;51.516;4.000;2023-04-24T07:09:39;2.20;;;1.43;;
6259;SDS011;3163;51.516;4.000;2023-04-24T07:12:07;1.80;;;1.27;;
6259;SDS011;3163;51.516;4.000;2023-04-24T07:14:33;5.53;;;1.53;;
6259;SDS011;3163;51.516;4.000;2023-04-24T07:16:59;1.87;;;1.30;;
6259;SDS011;3163;51.516;4.000;2023-04-24T07:19:24;3.57;;;1.67;;
6259;SDS011;3163;51.516;4.000;2023-04-24T07:21:50;3.23;;;1.50;;
6259;SDS011;3163;51.516;4.000;2023-04-24T07:24:15;3.37;;;1.37;;
6259;SDS011;3163;51.516;4.000;2023-04-24T07:26:41;2.88;;;1.20;;
6259;SDS011;3163;51.516;4.000;2023-04-24T07:29:07;3.43;;;1.33;;
6259;SDS011;3163;51.516;4.000;2023-04-24T07:31:32;1.27;;;1.17;;
6259;SDS011;3163;51.516;4.000;2023-04-24T07:33:58;2.10;;;1.60;;
6259;SDS011;3163;51.516;4.000;2023-04-24T07:36:24;1.13;;;0.60;;
6259;SDS011;3163;51.516;4.000;2023-04-24T07:38:51;0.37;;;0.37;;
6259;SDS011;3163;51.516;4.000;2023-04-24T07:41:17;7.00;;;1.03;;
6259;SDS011;3163;51.516;4.000;2023-04-24T07:43:42;5.13;;;1.80;;
6259;SDS011;3163;51.516;4.000;2023-04-24T07:46:09;1.83;;;1.10;;
6259;SDS011;3163;51.516;4.000;2023-04-24T07:48:35;3.33;;;1.27;;
6259;SDS011;3163;51.516;4.000;2023-04-24T07:51:01;4.20;;;1.40;;
6259;SDS011;3163;51.516;4.000;2023-04-24T07:53:26;2.40;;;1.23;;
6259;SDS011;3163;51.516;4.000;2023-04-24T07:55:53;4.63;;;1.57;;
6259;SDS011;3163;51.516;4.000;2023-04-24T07:58:20;4.70;;;1.47;;
6259;SDS011;3163;51.516;4.000;2023-04-24T08:00:46;1.50;;;1.03;;
6259;SDS011;3163;51.516;4.000;2023-04-24T08:03:12;2.53;;;1.03;;
6259;SDS011;3163;51.516;4.000;2023-04-24T08:05:37;2.10;;;0.77;;
6259;SDS011;3163;51.516;4.000;2023-04-24T08:08:03;0.93;;;0.63;;
6259;SDS011;3163;51.516;4.000;2023-04-24T08:10:29;1.60;;;1.00;;
6259;SDS011;3163;51.516;4.000;2023-04-24T08:12:54;3.13;;;1.13;;
6259;SDS011;3163;51.516;4.000;2023-04-24T08:15:20;3.43;;;0.90;;
6259;SDS011;3163;51.516;4.000;2023-04-24T08:17:46;1.27;;;0.90;;
6259;SDS011;3163;51.516;4.000;2023-04-24T08:20:12;1.53;;;0.80;;
6259;SDS011;3163;51.516;4.000;2023-04-24T08:22:41;0.70;;;0.70;;
6259;SDS011;3163;51.516;4.000;2023-04-24T08:25:07;5.03;;;1.50;;
6259;SDS011;3163;51.516;4.000;2023-04-24T08:27:33;2.90;;;1.20;;
6259;SDS011;3163;51.516;4.000;2023-04-24T08:29:59;2.10;;;0.80;;
6259;SDS011;3163;51.516;4.000;2023-04-24T08:32:25;4.63;;;1.35;;
6259;SDS011;3163;51.516;4.000;2023-04-24T08:34:53;1.93;;;0.93;;
6259;SDS011;3163;51.516;4.000;2023-04-24T08:37:21;2.73;;;0.70;;
6259;SDS011;3163;51.516;4.000;2023-04-24T08:39:47;1.40;;;0.67;;
6259;SDS011;3163;51.516;4.000;2023-04-24T08:42:12;4.77;;;1.00;;
6259;SDS011;3163;51.516;4.000;2023-04-24T08:44:39;4.47;;;0.93;;
6259;SDS011;3163;51.516;4.000;2023-04-24T08:47:05;3.63;;;0.80;;
6259;SDS011;3163;51.516;4.000;2023-04-24T08:49:33;0.57;;;0.57;;
6259;SDS011;3163;51.516;4.000;2023-04-24T08:52:01;4.40;;;0.80;;
6259;SDS011;3163;51.516;4.000;2023-04-24T08:54:27;2.40;;;0.60;;
6259;SDS011;3163;51.516;4.000;2023-04-24T08:56:53;0.70;;;0.60;;
6259;SDS011;3163;51.516;4.000;2023-04-24T08:59:23;1.33;;;0.83;;
6259;SDS011;3163;51.516;4.000;2023-04-24T09:01:49;1.70;;;0.80;;
6259;SDS011;3163;51.516;4.000;2023-04-24T09:04:17;0.30;;;0.30;;
6259;SDS011;3163;51.516;4.000;2023-04-24T09:06:44;2.60;;;0.90;;
6259;SDS011;3163;51.516;4.000;2023-04-24T09:09:10;0.90;;;0.87;;
6259;SDS011;3163;51.516;4.000;2023-04-24T09:11:36;0.80;;;0.70;;
6259;SDS011;3163;51.516;4.000;2023-04-24T09:14:02;2.10;;;0.50;;
6259;SDS011;3163;51.516;4.000;2023-04-24T09:16:29;2.17;;;0.70;;
6259;SDS011;3163;51.516;4.000;2023-04-24T09:18:55;0.97;;;0.70;;
6259;SDS011;3163;51.516;4.000;2023-04-24T09:21:21;1.60;;;0.60;;
6259;SDS011;3163;51.516;4.000;2023-04-24T09:23:57;1.23;;;0.40;;
6259;SDS011;3163;51.516;4.000;2023-04-24T09:26:31;0.60;;;0.60;;
6259;SDS011;3163;51.516;4.000;2023-04-24T09:28:57;1.27;;;0.80;;
6259;SDS011;3163;51.516;4.000;2023-04-24T09:31:23;0.53;;;0.50;;
6259;SDS011;3163;51.516;4.000;2023-04-24T09:33:56;0.63;;;0.53;;
6259;SDS011;3163;51.516;4.000;2023-04-24T09:36:29;1.52;;;0.65;;
6259;SDS011;3163;51.516;4.000;2023-04-24T09:39:01;1.90;;;0.80;;
6259;SDS011;3163;51.516;4.000;2023-04-24T09:41:27;0.77;;;0.43;;
6259;SDS011;3163;51.516;4.000;2023-04-24T09:43:56;1.40;;;0.70;;
6259;SDS011;3163;51.516;4.000;2023-04-24T09:46:30;3.13;;;0.60;;
6259;SDS011;3163;51.516;4.000;2023-04-24T09:49:03;2.53;;;0.70;;
6259;SDS011;3163;51.516;4.000;2023-04-24T09:51:35;3.23;;;0.70;;
6259;SDS011;3163;51.516;4.000;2023-04-24T09:54:02;0.97;;;0.60;;
6259;SDS011;3163;51.516;4.000;2023-04-24T09:56:32;0.97;;;0.33;;
6259;SDS011;3163;51.516;4.000;2023-04-24T09:59:04;1.40;;;0.90;;
6259;SDS011;3163;51.516;4.000;2023-04-24T10:01:33;1.27;;;0.50;;
6259;SDS011;3163;51.516;4.000;2023-04-24T10:03:59;1.17;;;0.50;;
6259;SDS011;3163;51.516;4.000;2023-04-24T10:06:33;3.40;;;0.60;;
6259;SDS011;3163;51.516;4.000;2023-04-24T10:08:59;1.50;;;0.60;;
6259;SDS011;3163;51.516;4.000;2023-04-24T10:11:28;0.50;;;0.50;;
6259;SDS011;3163;51.516;4.000;2023-04-24T10:13:55;1.60;;;0.70;;
6259;SDS011;3163;51.516;4.000;2023-04-24T10:16:22;0.77;;;0.57;;
6259;SDS011;3163;51.516;4.000;2023-04-24T10:18:52;1.50;;;0.50;;
6259;SDS011;3163;51.516;4.000;2023-04-24T10:21:18;0.47;;;0.40;;
6259;SDS011;3163;51.516;4.000;2023-04-24T10:23:44;0.60;;;0.40;;
6259;SDS011;3163;51.516;4.000;2023-04-24T10:26:14;1.27;;;0.40;;
6259;SDS011;3163;51.516;4.000;2023-04-24T10:28:45;0.80;;;0.57;;
6259;SDS011;3163;51.516;4.000;2023-04-24T10:31:12;0.53;;;0.50;;
6259;SDS011;3163;51.516;4.000;2023-04-24T10:33:40;1.67;;;0.50;;
6259;SDS011;3163;51.516;4.000;2023-04-24T10:36:07;1.08;;;0.70;;
6259;SDS011;3163;51.516;4.000;2023-04-24T10:38:34;0.60;;;0.60;;
6259;SDS011;3163;51.516;4.000;2023-04-24T10:41:08;0.50;;;0.50;;
6259;SDS011;3163;51.516;4.000;2023-04-24T10:44:04;0.83;;;0.30;;
6259;SDS011;3163;51.516;4.000;2023-04-24T10:46:29;2.87;;;1.00;;
6259;SDS011;3163;51.516;4.000;2023-04-24T10:48:55;1.10;;;0.60;;
6259;SDS011;3163;51.516;4.000;2023-04-24T10:51:23;1.70;;;0.50;;
6259;SDS011;3163;51.516;4.000;2023-04-24T10:53:50;2.30;;;0.50;;
6259;SDS011;3163;51.516;4.000;2023-04-24T10:56:16;1.33;;;0.90;;
6259;SDS011;3163;51.516;4.000;2023-04-24T10:58:50;1.07;;;0.30;;
6259;SDS011;3163;51.516;4.000;2023-04-24T11:03:54;1.33;;;0.70;;
6259;SDS011;3163;51.516;4.000;2023-04-24T11:06:31;2.80;;;0.63;;
6259;SDS011;3163;51.516;4.000;2023-04-24T11:09:04;2.53;;;0.70;;
6259;SDS011;3163;51.516;4.000;2023-04-24T11:11:37;3.23;;;0.60;;
6259;SDS011;3163;51.516;4.000;2023-04-24T11:14:05;0.63;;;0.60;;
6259;SDS011;3163;51.516;4.000;2023-04-24T11:16:33;1.73;;;0.60;;
6259;SDS011;3163;51.516;4.000;2023-04-24T11:19:21;0.30;;;0.30;;
6259;SDS011;3163;51.516;4.000;2023-04-24T11:21:55;2.73;;;0.40;;
6259;SDS011;3163;51.516;4.000;2023-04-24T11:24:29;1.37;;;0.53;;
6259;SDS011;3163;51.516;4.000;2023-04-24T11:34:45;1.00;;;0.60;;
6259;SDS011;3163;51.516;4.000;2023-04-24T11:37:12;1.43;;;0.57;;
6259;SDS011;3163;51.516;4.000;2023-04-24T11:39:38;0.57;;;0.50;;
6259;SDS011;3163;51.516;4.000;2023-04-24T11:42:04;0.83;;;0.67;;
6259;SDS011;3163;51.516;4.000;2023-04-24T11:44:31;0.60;;;0.60;;
6259;SDS011;3163;51.516;4.000;2023-04-24T11:46:59;2.10;;;0.70;;
6259;SDS011;3163;51.516;4.000;2023-04-24T11:49:25;1.03;;;0.30;;
6259;SDS011;3163;51.516;4.000;2023-04-24T11:51:50;5.93;;;0.87;;
6259;SDS011;3163;51.516;4.000;2023-04-24T11:54:20;3.03;;;0.70;;
6259;SDS011;3163;51.516;4.000;2023-04-24T11:56:46;1.90;;;0.70;;
6259;SDS011;3163;51.516;4.000;2023-04-24T11:59:12;0.70;;;0.30;;
6259;SDS011;3163;51.516;4.000;2023-04-24T12:01:44;0.83;;;0.57;;
6259;SDS011;3163;51.516;4.000;2023-04-24T12:04:11;0.47;;;0.47;;
6259;SDS011;3163;51.516;4.000;2023-04-24T12:06:37;1.47;;;0.43;;
6259;SDS011;3163;51.516;4.000;2023-04-24T12:09:02;0.97;;;0.57;;
6259;SDS011;3163;51.516;4.000;2023-04-24T12:11:29;1.20;;;0.77;;
6259;SDS011;3163;51.516;4.000;2023-04-24T12:13:54;1.23;;;0.70;;
6259;SDS011;3163;51.516;4.000;2023-04-24T12:16:20;0.57;;;0.40;;
6259;SDS011;3163;51.516;4.000;2023-04-24T12:18:46;1.97;;;0.40;;
6259;SDS011;3163;51.516;4.000;2023-04-24T12:21:18;1.37;;;1.00;;
6259;SDS011;3163;51.516;4.000;2023-04-24T12:23:45;0.60;;;0.40;;
6259;SDS011;3163;51.516;4.000;2023-04-24T12:26:18;4.70;;;0.60;;
6259;SDS011;3163;51.516;4.000;2023-04-24T12:28:46;0.40;;;0.40;;
6259;SDS011;3163;51.516;4.000;2023-04-24T12:31:14;0.77;;;0.73;;
6259;SDS011;3163;51.516;4.000;2023-04-24T12:33:40;1.27;;;0.37;;
6259;SDS011;3163;51.516;4.000;2023-04-24T12:36:06;0.30;;;0.30;;
6259;SDS011;3163;51.516;4.000;2023-04-24T12:38:35;1.88;;;0.80;;
6259;SDS011;3163;51.516;4.000;2023-04-24T12:41:06;2.20;;;0.70;;
6259;SDS011;3163;51.516;4.000;2023-04-24T12:43:33;3.90;;;0.70;;
6259;SDS011;3163;51.516;4.000;2023-04-24T12:45:58;2.13;;;0.50;;
6259;SDS011;3163;51.516;4.000;2023-04-24T12:48:27;4.57;;;0.53;;
6259;SDS011;3163;51.516;4.000;2023-04-24T12:50:54;2.30;;;1.33;;
6259;SDS011;3163;51.516;4.000;2023-04-24T12:53:21;0.53;;;0.53;;
6259;SDS011;3163;51.516;4.000;2023-04-24T12:55:47;2.03;;;0.50;;
6259;SDS011;3163;51.516;4.000;2023-04-24T12:58:18;2.37;;;0.57;;
6259;SDS011;3163;51.516;4.000;2023-04-24T13:00:47;1.47;;;1.03;;
6259;SDS011;3163;51.516;4.000;2023-04-24T13:03:13;0.70;;;0.60;;
6259;SDS011;3163;51.516;4.000;2023-04-24T13:05:39;0.20;;;0.20;;
6259;SDS011;3163;51.516;4.000;2023-04-24T13:08:05;0.80;;;0.67;;
6259;SDS011;3163;51.516;4.000;2023-04-24T13:10:31;0.60;;;0.60;;
6259;SDS011;3163;51.516;4.000;2023-04-24T13:12:56;2.40;;;0.90;;
6259;SDS011;3163;51.516;4.000;2023-04-24T13:15:22;0.50;;;0.40;;
6259;SDS011;3163;51.516;4.000;2023-04-24T13:17:47;1.10;;;0.33;;
6259;SDS011;3163;51.516;4.000;2023-04-24T13:20:13;1.00;;;0.60;;
6259;SDS011;3163;51.516;4.000;2023-04-24T13:22:39;0.60;;;0.30;;
6259;SDS011;3163;51.516;4.000;2023-04-24T13:25:05;0.63;;;0.40;;
6259;SDS011;3163;51.516;4.000;2023-04-24T13:27:31;1.47;;;0.60;;
6259;SDS011;3163;51.516;4.000;2023-04-24T13:29:56;2.30;;;0.90;;
6259;SDS011;3163;51.516;4.000;2023-04-24T13:32:22;0.30;;;0.30;;
6259;SDS011;3163;51.516;4.000;2023-04-24T13:34:48;0.80;;;0.70;;
6259;SDS011;3163;51.516;4.000;2023-04-24T13:37:13;0.53;;;0.27;;
6259;SDS011;3163;51.516;4.000;2023-04-24T13:39:39;1.57;;;0.80;;
6259;SDS011;3163;51.516;4.000;2023-04-24T13:42:06;0.70;;;0.70;;
6259;SDS011;3163;51.516;4.000;2023-04-24T13:44:31;1.03;;;0.60;;
6259;SDS011;3163;51.516;4.000;2023-04-24T13:46:57;1.50;;;0.90;;
6259;SDS011;3163;51.516;4.000;2023-04-24T13:49:24;0.43;;;0.43;;
6259;SDS011;3163;51.516;4.000;2023-04-24T13:51:50;0.93;;;0.60;;
6259;SDS011;3163;51.516;4.000;2023-04-24T13:54:17;1.47;;;0.90;;
6259;SDS011;3163;51.516;4.000;2023-04-24T13:56:42;0.93;;;0.63;;
6259;SDS011;3163;51.516;4.000;2023-04-24T13:59:08;0.83;;;0.80;;
6259;SDS011;3163;51.516;4.000;2023-04-24T14:01:33;0.63;;;0.60;;
6259;SDS011;3163;51.516;4.000;2023-04-24T14:04:00;1.87;;;0.80;;
6259;SDS011;3163;51.516;4.000;2023-04-24T14:06:25;0.83;;;0.60;;
6259;SDS011;3163;51.516;4.000;2023-04-24T14:08:51;0.70;;;0.70;;
6259;SDS011;3163;51.516;4.000;2023-04-24T14:11:18;0.53;;;0.53;;
6259;SDS011;3163;51.516;4.000;2023-04-24T14:13:44;0.73;;;0.57;;
6259;SDS011;3163;51.516;4.000;2023-04-24T14:16:10;1.00;;;0.70;;
6259;SDS011;3163;51.516;4.000;2023-04-24T14:18:36;2.13;;;0.77;;
6259;SDS011;3163;51.516;4.000;2023-04-24T14:21:04;1.10;;;0.50;;
6259;SDS011;3163;51.516;4.000;2023-04-24T14:23:31;1.23;;;0.67;;
6259;SDS011;3163;51.516;4.000;2023-04-24T14:25:57;1.87;;;0.93;;
6259;SDS011;3163;51.516;4.000;2023-04-24T14:28:23;1.50;;;0.57;;
6259;SDS011;3163;51.516;4.000;2023-04-24T14:30:49;1.43;;;0.70;;
6259;SDS011;3163;51.516;4.000;2023-04-24T14:33:15;0.67;;;0.57;;
6259;SDS011;3163;51.516;4.000;2023-04-24T14:35:41;3.60;;;0.83;;
6259;SDS011;3163;51.516;4.000;2023-04-24T14:38:07;1.20;;;0.50;;
6259;SDS011;3163;51.516;4.000;2023-04-24T14:40:33;4.50;;;1.07;;
6259;SDS011;3163;51.516;4.000;2023-04-24T14:42:59;0.70;;;0.70;;
6259;SDS011;3163;51.516;4.000;2023-04-24T14:45:25;0.50;;;0.50;;
6259;SDS011;3163;51.516;4.000;2023-04-24T14:47:52;0.93;;;0.80;;
6259;SDS011;3163;51.516;4.000;2023-04-24T14:50:18;1.10;;;0.90;;
6259;SDS011;3163;51.516;4.000;2023-04-24T14:52:43;0.83;;;0.83;;
6259;SDS011;3163;51.516;4.000;2023-04-24T14:55:09;1.03;;;0.80;;
6259;SDS011;3163;51.516;4.000;2023-04-24T14:57:35;1.45;;;0.80;;
6259;SDS011;3163;51.516;4.000;2023-04-24T15:00:01;3.07;;;1.33;;
6259;SDS011;3163;51.516;4.000;2023-04-24T15:02:30;0.50;;;0.50;;
6259;SDS011;3163;51.516;4.000;2023-04-24T15:04:55;0.70;;;0.70;;
6259;SDS011;3163;51.516;4.000;2023-04-24T15:07:21;0.40;;;0.40;;
6259;SDS011;3163;51.516;4.000;2023-04-24T15:09:47;0.60;;;0.60;;
6259;SDS011;3163;51.516;4.000;2023-04-24T15:12:12;0.97;;;0.70;;
6259;SDS011;3163;51.516;4.000;2023-04-24T15:14:38;1.50;;;0.90;;
6259;SDS011;3163;51.516;4.000;2023-04-24T15:17:04;1.63;;;0.90;;
6259;SDS011;3163;51.516;4.000;2023-04-24T15:19:29;1.27;;;0.77;;
6259;SDS011;3163;51.516;4.000;2023-04-24T15:21:56;0.73;;;0.60;;